Weather at Ross Air Base [CLOSED]

Public forecast

Using degrees Celsius for public forecast. Weather courtesy of forecast.io.

Closest aviation weather report (METAR) to Ross Air Base

Report is more than 6 hours old.

Closest report is Hrodna Airport, 21.2 nm (39.3 km) NNW.

2024/06/16 13:00 (retrieved 14 hours ago)

UMMG 161300Z 11003MPS 9999 BKN040 23/09 Q1012 NOSIG

Closest aviation forecast (TAF) to Ross Air Base

Forecast is more than 6 hours old.

Closest forecast is Sliač Airport, 342.8 nm (634.8 km) SW.

2024/06/16 18:18 (retrieved 9 hours ago)

TAF LZSL 161630Z 1618/1706 VRB02KT 9999 FEW026 SCT034 TEMPO 1622/1706 1500 BCFG SCT006 PROB40 TEMPO 1701/1706 0200 FG BKN002